sensor_id;sensor_type;location;lat;lon;timestamp;P1;durP1;ratioP1;P2;durP2;ratioP2
6300;SDS011;3183;51.010;6.898;2023-01-25T00:01:05;20.53;;;11.20;;
6300;SDS011;3183;51.010;6.898;2023-01-25T00:03:32;23.60;;;12.37;;
6300;SDS011;3183;51.010;6.898;2023-01-25T00:05:59;19.47;;;12.10;;
6300;SDS011;3183;51.010;6.898;2023-01-25T00:08:27;20.13;;;11.20;;
6300;SDS011;3183;51.010;6.898;2023-01-25T00:10:54;21.70;;;11.27;;
6300;SDS011;3183;51.010;6.898;2023-01-25T00:13:21;23.90;;;13.13;;
6300;SDS011;3183;51.010;6.898;2023-01-25T00:15:50;21.47;;;12.53;;
6300;SDS011;3183;51.010;6.898;2023-01-25T00:18:17;21.80;;;11.60;;
6300;SDS011;3183;51.010;6.898;2023-01-25T00:20:45;16.97;;;11.00;;
6300;SDS011;3183;51.010;6.898;2023-01-25T00:23:12;20.23;;;11.40;;
6300;SDS011;3183;51.010;6.898;2023-01-25T00:25:39;21.23;;;11.33;;
6300;SDS011;3183;51.010;6.898;2023-01-25T00:28:06;21.70;;;10.43;;
6300;SDS011;3183;51.010;6.898;2023-01-25T00:30:33;22.60;;;13.10;;
6300;SDS011;3183;51.010;6.898;2023-01-25T00:33:05;16.83;;;9.57;;
6300;SDS011;3183;51.010;6.898;2023-01-25T00:35:33;25.23;;;13.23;;
6300;SDS011;3183;51.010;6.898;2023-01-25T00:38:00;20.27;;;11.10;;
6300;SDS011;3183;51.010;6.898;2023-01-25T00:40:28;22.90;;;11.93;;
6300;SDS011;3183;51.010;6.898;2023-01-25T00:42:55;23.83;;;11.87;;
6300;SDS011;3183;51.010;6.898;2023-01-25T00:45:24;18.93;;;10.73;;
6300;SDS011;3183;51.010;6.898;2023-01-25T00:47:53;20.80;;;11.33;;
6300;SDS011;3183;51.010;6.898;2023-01-25T00:50:21;20.87;;;12.30;;
6300;SDS011;3183;51.010;6.898;2023-01-25T00:52:49;25.73;;;12.20;;
6300;SDS011;3183;51.010;6.898;2023-01-25T00:55:16;22.43;;;11.37;;
6300;SDS011;3183;51.010;6.898;2023-01-25T00:57:43;22.93;;;11.80;;
6300;SDS011;3183;51.010;6.898;2023-01-25T01:00:10;21.10;;;11.00;;
6300;SDS011;3183;51.010;6.898;2023-01-25T01:02:38;20.47;;;10.63;;
6300;SDS011;3183;51.010;6.898;2023-01-25T01:05:05;18.40;;;10.53;;
6300;SDS011;3183;51.010;6.898;2023-01-25T01:07:34;19.47;;;11.30;;
6300;SDS011;3183;51.010;6.898;2023-01-25T01:10:01;24.20;;;12.00;;
6300;SDS011;3183;51.010;6.898;2023-01-25T01:12:28;20.77;;;11.23;;
6300;SDS011;3183;51.010;6.898;2023-01-25T01:14:55;20.10;;;11.10;;
6300;SDS011;3183;51.010;6.898;2023-01-25T01:17:23;23.73;;;12.63;;
6300;SDS011;3183;51.010;6.898;2023-01-25T01:19:50;27.40;;;12.90;;
6300;SDS011;3183;51.010;6.898;2023-01-25T01:22:17;22.90;;;12.17;;
6300;SDS011;3183;51.010;6.898;2023-01-25T01:24:47;21.90;;;12.87;;
6300;SDS011;3183;51.010;6.898;2023-01-25T01:27:14;25.73;;;12.33;;
6300;SDS011;3183;51.010;6.898;2023-01-25T01:29:41;22.03;;;12.40;;
6300;SDS011;3183;51.010;6.898;2023-01-25T01:32:08;22.60;;;12.07;;
6300;SDS011;3183;51.010;6.898;2023-01-25T01:34:36;21.57;;;11.70;;
6300;SDS011;3183;51.010;6.898;2023-01-25T01:37:03;26.17;;;14.00;;
6300;SDS011;3183;51.010;6.898;2023-01-25T01:39:30;22.83;;;11.23;;
6300;SDS011;3183;51.010;6.898;2023-01-25T01:41:59;26.53;;;14.03;;
6300;SDS011;3183;51.010;6.898;2023-01-25T01:44:45;20.40;;;11.20;;
6300;SDS011;3183;51.010;6.898;2023-01-25T01:47:13;21.50;;;12.30;;
6300;SDS011;3183;51.010;6.898;2023-01-25T01:49:41;20.83;;;11.97;;
6300;SDS011;3183;51.010;6.898;2023-01-25T01:52:11;24.07;;;11.63;;
6300;SDS011;3183;51.010;6.898;2023-01-25T01:54:40;23.90;;;11.70;;
6300;SDS011;3183;51.010;6.898;2023-01-25T01:57:11;24.07;;;12.83;;
6300;SDS011;3183;51.010;6.898;2023-01-25T01:59:40;27.30;;;13.77;;
6300;SDS011;3183;51.010;6.898;2023-01-25T02:02:09;27.20;;;14.13;;
6300;SDS011;3183;51.010;6.898;2023-01-25T02:04:36;24.07;;;13.60;;
6300;SDS011;3183;51.010;6.898;2023-01-25T02:07:04;19.17;;;11.27;;
6300;SDS011;3183;51.010;6.898;2023-01-25T02:09:35;21.83;;;11.47;;
6300;SDS011;3183;51.010;6.898;2023-01-25T02:12:02;23.00;;;12.00;;
6300;SDS011;3183;51.010;6.898;2023-01-25T02:14:31;19.17;;;11.00;;
6300;SDS011;3183;51.010;6.898;2023-01-25T02:16:59;22.93;;;11.97;;
6300;SDS011;3183;51.010;6.898;2023-01-25T02:19:30;18.83;;;11.53;;
6300;SDS011;3183;51.010;6.898;2023-01-25T02:21:59;23.03;;;11.63;;
6300;SDS011;3183;51.010;6.898;2023-01-25T02:24:31;24.93;;;12.80;;
6300;SDS011;3183;51.010;6.898;2023-01-25T02:27:00;18.47;;;10.67;;
6300;SDS011;3183;51.010;6.898;2023-01-25T02:29:27;22.97;;;12.20;;
6300;SDS011;3183;51.010;6.898;2023-01-25T02:31:58;20.90;;;11.50;;
6300;SDS011;3183;51.010;6.898;2023-01-25T02:34:25;21.20;;;11.57;;
6300;SDS011;3183;51.010;6.898;2023-01-25T02:36:53;28.80;;;13.60;;
6300;SDS011;3183;51.010;6.898;2023-01-25T02:39:20;24.30;;;13.40;;
6300;SDS011;3183;51.010;6.898;2023-01-25T02:41:50;24.17;;;12.53;;
6300;SDS011;3183;51.010;6.898;2023-01-25T02:44:20;18.87;;;11.20;;
6300;SDS011;3183;51.010;6.898;2023-01-25T02:46:49;24.07;;;12.70;;
6300;SDS011;3183;51.010;6.898;2023-01-25T02:49:16;22.57;;;12.27;;
6300;SDS011;3183;51.010;6.898;2023-01-25T02:51:44;23.40;;;12.00;;
6300;SDS011;3183;51.010;6.898;2023-01-25T02:54:13;24.50;;;12.50;;
6300;SDS011;3183;51.010;6.898;2023-01-25T02:56:41;20.10;;;11.80;;
6300;SDS011;3183;51.010;6.898;2023-01-25T02:59:08;22.90;;;12.40;;
6300;SDS011;3183;51.010;6.898;2023-01-25T03:01:39;25.30;;;12.77;;
6300;SDS011;3183;51.010;6.898;2023-01-25T03:04:06;21.20;;;11.20;;
6300;SDS011;3183;51.010;6.898;2023-01-25T03:06:34;26.73;;;13.67;;
6300;SDS011;3183;51.010;6.898;2023-01-25T03:09:01;22.50;;;12.30;;
6300;SDS011;3183;51.010;6.898;2023-01-25T03:11:29;24.03;;;12.70;;
6300;SDS011;3183;51.010;6.898;2023-01-25T03:13:56;21.00;;;11.70;;
6300;SDS011;3183;51.010;6.898;2023-01-25T03:16:23;20.97;;;12.23;;
6300;SDS011;3183;51.010;6.898;2023-01-25T03:18:52;24.03;;;12.43;;
6300;SDS011;3183;51.010;6.898;2023-01-25T03:21:20;24.37;;;12.77;;
6300;SDS011;3183;51.010;6.898;2023-01-25T03:23:53;21.87;;;11.87;;
6300;SDS011;3183;51.010;6.898;2023-01-25T03:26:21;22.27;;;12.03;;
6300;SDS011;3183;51.010;6.898;2023-01-25T03:28:48;22.70;;;12.93;;
6300;SDS011;3183;51.010;6.898;2023-01-25T03:31:15;28.00;;;13.33;;
6300;SDS011;3183;51.010;6.898;2023-01-25T03:33:43;24.83;;;13.70;;
6300;SDS011;3183;51.010;6.898;2023-01-25T03:36:11;20.30;;;11.73;;
6300;SDS011;3183;51.010;6.898;2023-01-25T03:38:38;25.00;;;13.17;;
6300;SDS011;3183;51.010;6.898;2023-01-25T03:41:06;26.10;;;13.23;;
6300;SDS011;3183;51.010;6.898;2023-01-25T03:43:33;25.60;;;12.30;;
6300;SDS011;3183;51.010;6.898;2023-01-25T03:46:00;22.70;;;12.70;;
6300;SDS011;3183;51.010;6.898;2023-01-25T03:48:27;24.43;;;12.87;;
6300;SDS011;3183;51.010;6.898;2023-01-25T03:50:56;24.20;;;12.83;;
6300;SDS011;3183;51.010;6.898;2023-01-25T03:53:25;24.13;;;11.50;;
6300;SDS011;3183;51.010;6.898;2023-01-25T03:55:54;25.83;;;13.40;;
6300;SDS011;3183;51.010;6.898;2023-01-25T03:58:21;22.80;;;13.07;;
6300;SDS011;3183;51.010;6.898;2023-01-25T04:00:49;25.40;;;13.80;;
6300;SDS011;3183;51.010;6.898;2023-01-25T04:03:16;20.70;;;11.80;;
6300;SDS011;3183;51.010;6.898;2023-01-25T04:05:44;29.57;;;13.30;;
6300;SDS011;3183;51.010;6.898;2023-01-25T04:08:12;20.70;;;11.43;;
6300;SDS011;3183;51.010;6.898;2023-01-25T04:10:40;28.30;;;13.60;;
6300;SDS011;3183;51.010;6.898;2023-01-25T04:13:07;27.83;;;13.53;;
6300;SDS011;3183;51.010;6.898;2023-01-25T04:15:34;25.13;;;13.67;;
6300;SDS011;3183;51.010;6.898;2023-01-25T04:18:02;24.53;;;12.90;;
6300;SDS011;3183;51.010;6.898;2023-01-25T04:20:29;23.17;;;12.87;;
6300;SDS011;3183;51.010;6.898;2023-01-25T04:22:56;23.73;;;12.70;;
6300;SDS011;3183;51.010;6.898;2023-01-25T04:25:23;22.40;;;12.07;;
6300;SDS011;3183;51.010;6.898;2023-01-25T04:27:52;20.30;;;12.27;;
6300;SDS011;3183;51.010;6.898;2023-01-25T04:30:19;22.07;;;13.03;;
6300;SDS011;3183;51.010;6.898;2023-01-25T04:32:46;21.43;;;12.43;;
6300;SDS011;3183;51.010;6.898;2023-01-25T04:35:14;21.40;;;11.33;;
6300;SDS011;3183;51.010;6.898;2023-01-25T04:37:41;25.60;;;13.60;;
6300;SDS011;3183;51.010;6.898;2023-01-25T04:40:08;30.23;;;13.63;;
6300;SDS011;3183;51.010;6.898;2023-01-25T04:42:36;22.90;;;12.60;;
6300;SDS011;3183;51.010;6.898;2023-01-25T04:45:05;23.77;;;13.23;;
6300;SDS011;3183;51.010;6.898;2023-01-25T04:47:32;25.67;;;13.37;;
6300;SDS011;3183;51.010;6.898;2023-01-25T04:49:59;23.90;;;12.73;;
6300;SDS011;3183;51.010;6.898;2023-01-25T04:52:26;28.27;;;13.83;;
6300;SDS011;3183;51.010;6.898;2023-01-25T04:54:54;24.37;;;13.47;;
6300;SDS011;3183;51.010;6.898;2023-01-25T04:57:21;26.33;;;12.87;;
6300;SDS011;3183;51.010;6.898;2023-01-25T04:59:48;25.37;;;13.43;;
6300;SDS011;3183;51.010;6.898;2023-01-25T05:02:16;24.73;;;13.30;;
6300;SDS011;3183;51.010;6.898;2023-01-25T05:04:43;23.20;;;13.20;;
6300;SDS011;3183;51.010;6.898;2023-01-25T05:07:11;25.20;;;12.87;;
6300;SDS011;3183;51.010;6.898;2023-01-25T05:09:38;29.10;;;15.30;;
6300;SDS011;3183;51.010;6.898;2023-01-25T05:12:05;25.43;;;15.20;;
6300;SDS011;3183;51.010;6.898;2023-01-25T05:14:35;27.73;;;14.60;;
6300;SDS011;3183;51.010;6.898;2023-01-25T05:17:03;30.80;;;17.33;;
6300;SDS011;3183;51.010;6.898;2023-01-25T05:19:31;30.00;;;14.63;;
6300;SDS011;3183;51.010;6.898;2023-01-25T05:21:59;28.30;;;14.20;;
6300;SDS011;3183;51.010;6.898;2023-01-25T05:24:27;29.80;;;14.93;;
6300;SDS011;3183;51.010;6.898;2023-01-25T05:26:54;31.17;;;16.33;;
6300;SDS011;3183;51.010;6.898;2023-01-25T05:29:30;26.20;;;15.13;;
6300;SDS011;3183;51.010;6.898;2023-01-25T05:32:00;27.47;;;14.33;;
6300;SDS011;3183;51.010;6.898;2023-01-25T05:34:29;26.80;;;14.33;;
6300;SDS011;3183;51.010;6.898;2023-01-25T05:36:58;27.80;;;14.77;;
6300;SDS011;3183;51.010;6.898;2023-01-25T05:39:25;29.93;;;15.03;;
6300;SDS011;3183;51.010;6.898;2023-01-25T05:41:52;27.90;;;14.03;;
6300;SDS011;3183;51.010;6.898;2023-01-25T05:44:20;27.17;;;15.03;;
6300;SDS011;3183;51.010;6.898;2023-01-25T05:46:47;27.57;;;14.17;;
6300;SDS011;3183;51.010;6.898;2023-01-25T05:49:14;27.83;;;13.87;;
6300;SDS011;3183;51.010;6.898;2023-01-25T05:51:42;30.33;;;15.73;;
6300;SDS011;3183;51.010;6.898;2023-01-25T05:54:11;29.93;;;15.70;;
6300;SDS011;3183;51.010;6.898;2023-01-25T05:56:38;30.37;;;15.60;;
6300;SDS011;3183;51.010;6.898;2023-01-25T05:59:06;28.20;;;13.10;;
6300;SDS011;3183;51.010;6.898;2023-01-25T06:01:33;27.67;;;14.17;;
6300;SDS011;3183;51.010;6.898;2023-01-25T06:04:00;28.10;;;13.83;;
6300;SDS011;3183;51.010;6.898;2023-01-25T06:06:27;23.83;;;12.97;;
6300;SDS011;3183;51.010;6.898;2023-01-25T06:08:54;25.23;;;13.63;;
6300;SDS011;3183;51.010;6.898;2023-01-25T06:11:23;21.20;;;13.00;;
6300;SDS011;3183;51.010;6.898;2023-01-25T06:13:50;26.23;;;13.23;;
6300;SDS011;3183;51.010;6.898;2023-01-25T06:16:17;23.67;;;12.90;;
6300;SDS011;3183;51.010;6.898;2023-01-25T06:18:45;23.77;;;12.40;;
6300;SDS011;3183;51.010;6.898;2023-01-25T06:21:12;25.90;;;13.40;;
6300;SDS011;3183;51.010;6.898;2023-01-25T06:23:39;30.53;;;14.33;;
6300;SDS011;3183;51.010;6.898;2023-01-25T06:26:07;27.77;;;13.90;;
6300;SDS011;3183;51.010;6.898;2023-01-25T06:28:37;28.77;;;15.00;;
6300;SDS011;3183;51.010;6.898;2023-01-25T06:31:05;29.17;;;14.97;;
6300;SDS011;3183;51.010;6.898;2023-01-25T06:33:33;27.53;;;14.10;;
6300;SDS011;3183;51.010;6.898;2023-01-25T06:36:00;30.63;;;14.90;;
6300;SDS011;3183;51.010;6.898;2023-01-25T06:38:28;28.20;;;14.00;;
6300;SDS011;3183;51.010;6.898;2023-01-25T06:40:59;31.30;;;15.77;;
6300;SDS011;3183;51.010;6.898;2023-01-25T06:43:28;28.77;;;15.27;;
6300;SDS011;3183;51.010;6.898;2023-01-25T06:46:00;30.40;;;14.30;;
6300;SDS011;3183;51.010;6.898;2023-01-25T06:48:28;33.27;;;15.40;;
6300;SDS011;3183;51.010;6.898;2023-01-25T06:50:56;36.43;;;16.97;;
6300;SDS011;3183;51.010;6.898;2023-01-25T06:53:24;35.03;;;16.03;;
6300;SDS011;3183;51.010;6.898;2023-01-25T06:55:58;25.60;;;14.17;;
6300;SDS011;3183;51.010;6.898;2023-01-25T06:58:25;36.27;;;16.43;;
6300;SDS011;3183;51.010;6.898;2023-01-25T07:00:53;30.70;;;15.30;;
6300;SDS011;3183;51.010;6.898;2023-01-25T07:03:21;25.30;;;13.57;;
6300;SDS011;3183;51.010;6.898;2023-01-25T07:05:48;29.43;;;15.10;;
6300;SDS011;3183;51.010;6.898;2023-01-25T07:08:16;34.07;;;17.50;;
6300;SDS011;3183;51.010;6.898;2023-01-25T07:10:51;32.10;;;16.70;;
6300;SDS011;3183;51.010;6.898;2023-01-25T07:13:19;39.80;;;17.07;;
6300;SDS011;3183;51.010;6.898;2023-01-25T07:15:50;33.20;;;17.47;;
6300;SDS011;3183;51.010;6.898;2023-01-25T07:18:17;40.60;;;18.07;;
6300;SDS011;3183;51.010;6.898;2023-01-25T07:20:47;29.80;;;15.43;;
6300;SDS011;3183;51.010;6.898;2023-01-25T07:23:14;36.13;;;17.30;;
6300;SDS011;3183;51.010;6.898;2023-01-25T07:25:42;37.57;;;17.77;;
6300;SDS011;3183;51.010;6.898;2023-01-25T07:28:09;39.30;;;17.97;;
6300;SDS011;3183;51.010;6.898;2023-01-25T07:30:36;41.13;;;18.90;;
6300;SDS011;3183;51.010;6.898;2023-01-25T07:33:03;43.47;;;19.57;;
6300;SDS011;3183;51.010;6.898;2023-01-25T07:35:30;37.83;;;18.27;;
6300;SDS011;3183;51.010;6.898;2023-01-25T07:37:59;38.17;;;19.77;;
6300;SDS011;3183;51.010;6.898;2023-01-25T07:40:26;40.57;;;17.97;;
6300;SDS011;3183;51.010;6.898;2023-01-25T07:42:53;50.03;;;19.87;;
6300;SDS011;3183;51.010;6.898;2023-01-25T07:45:20;42.77;;;19.77;;
6300;SDS011;3183;51.010;6.898;2023-01-25T07:47:52;38.80;;;19.10;;
6300;SDS011;3183;51.010;6.898;2023-01-25T07:50:19;40.10;;;19.70;;
6300;SDS011;3183;51.010;6.898;2023-01-25T07:52:46;39.47;;;18.07;;
6300;SDS011;3183;51.010;6.898;2023-01-25T07:55:15;39.13;;;18.93;;
6300;SDS011;3183;51.010;6.898;2023-01-25T07:57:42;37.00;;;17.50;;
6300;SDS011;3183;51.010;6.898;2023-01-25T08:00:10;38.87;;;18.40;;
6300;SDS011;3183;51.010;6.898;2023-01-25T08:02:37;38.57;;;18.80;;
6300;SDS011;3183;51.010;6.898;2023-01-25T08:05:04;38.80;;;18.03;;
6300;SDS011;3183;51.010;6.898;2023-01-25T08:07:32;38.73;;;19.07;;
6300;SDS011;3183;51.010;6.898;2023-01-25T08:09:59;42.97;;;19.60;;
6300;SDS011;3183;51.010;6.898;2023-01-25T08:12:27;36.43;;;18.30;;
6300;SDS011;3183;51.010;6.898;2023-01-25T08:14:54;42.87;;;19.40;;
6300;SDS011;3183;51.010;6.898;2023-01-25T08:17:21;39.37;;;19.23;;
6300;SDS011;3183;51.010;6.898;2023-01-25T08:19:49;33.07;;;17.20;;
6300;SDS011;3183;51.010;6.898;2023-01-25T08:22:16;44.60;;;18.97;;
6300;SDS011;3183;51.010;6.898;2023-01-25T08:24:43;38.73;;;17.40;;
6300;SDS011;3183;51.010;6.898;2023-01-25T08:27:10;34.70;;;18.10;;
6300;SDS011;3183;51.010;6.898;2023-01-25T08:29:38;37.90;;;17.60;;
6300;SDS011;3183;51.010;6.898;2023-01-25T08:32:06;39.17;;;18.93;;
6300;SDS011;3183;51.010;6.898;2023-01-25T08:34:33;35.20;;;18.30;;
6300;SDS011;3183;51.010;6.898;2023-01-25T08:37:01;41.37;;;18.93;;
6300;SDS011;3183;51.010;6.898;2023-01-25T08:39:28;37.60;;;18.57;;
6300;SDS011;3183;51.010;6.898;2023-01-25T08:41:55;41.70;;;19.47;;
6300;SDS011;3183;51.010;6.898;2023-01-25T08:44:22;41.33;;;18.70;;
6300;SDS011;3183;51.010;6.898;2023-01-25T08:46:51;35.50;;;18.40;;
6300;SDS011;3183;51.010;6.898;2023-01-25T08:49:18;35.30;;;16.20;;
6300;SDS011;3183;51.010;6.898;2023-01-25T08:51:45;34.63;;;17.40;;
6300;SDS011;3183;51.010;6.898;2023-01-25T08:54:14;33.27;;;16.50;;
6300;SDS011;3183;51.010;6.898;2023-01-25T08:56:41;41.37;;;20.67;;
6300;SDS011;3183;51.010;6.898;2023-01-25T08:59:09;43.17;;;19.90;;
6300;SDS011;3183;51.010;6.898;2023-01-25T09:01:37;49.60;;;26.00;;
6300;SDS011;3183;51.010;6.898;2023-01-25T09:04:05;37.80;;;20.03;;
6300;SDS011;3183;51.010;6.898;2023-01-25T09:06:32;41.33;;;19.50;;
6300;SDS011;3183;51.010;6.898;2023-01-25T09:09:00;38.37;;;19.70;;
6300;SDS011;3183;51.010;6.898;2023-01-25T09:11:28;37.03;;;19.50;;
6300;SDS011;3183;51.010;6.898;2023-01-25T09:13:55;37.77;;;19.10;;
6300;SDS011;3183;51.010;6.898;2023-01-25T09:16:26;34.80;;;18.73;;
6300;SDS011;3183;51.010;6.898;2023-01-25T09:18:53;39.70;;;18.37;;
6300;SDS011;3183;51.010;6.898;2023-01-25T09:21:22;41.60;;;20.00;;
6300;SDS011;3183;51.010;6.898;2023-01-25T09:23:50;36.10;;;18.00;;
6300;SDS011;3183;51.010;6.898;2023-01-25T09:26:18;33.90;;;17.10;;
6300;SDS011;3183;51.010;6.898;2023-01-25T09:28:46;39.97;;;19.70;;
6300;SDS011;3183;51.010;6.898;2023-01-25T09:31:14;49.50;;;22.97;;
6300;SDS011;3183;51.010;6.898;2023-01-25T09:33:41;41.83;;;20.20;;
6300;SDS011;3183;51.010;6.898;2023-01-25T09:36:08;44.23;;;20.03;;
6300;SDS011;3183;51.010;6.898;2023-01-25T09:38:37;41.23;;;20.60;;
6300;SDS011;3183;51.010;6.898;2023-01-25T09:41:17;42.30;;;20.17;;
6300;SDS011;3183;51.010;6.898;2023-01-25T09:43:51;42.40;;;21.60;;
6300;SDS011;3183;51.010;6.898;2023-01-25T09:46:22;44.37;;;18.53;;
6300;SDS011;3183;51.010;6.898;2023-01-25T09:48:53;44.10;;;18.50;;
6300;SDS011;3183;51.010;6.898;2023-01-25T09:51:24;40.07;;;19.50;;
6300;SDS011;3183;51.010;6.898;2023-01-25T09:53:53;45.07;;;20.20;;
6300;SDS011;3183;51.010;6.898;2023-01-25T09:56:23;45.00;;;21.37;;
6300;SDS011;3183;51.010;6.898;2023-01-25T09:58:52;48.10;;;22.20;;
6300;SDS011;3183;51.010;6.898;2023-01-25T10:01:25;43.27;;;21.10;;
6300;SDS011;3183;51.010;6.898;2023-01-25T10:03:54;45.13;;;20.57;;
6300;SDS011;3183;51.010;6.898;2023-01-25T10:06:22;43.27;;;20.50;;
6300;SDS011;3183;51.010;6.898;2023-01-25T10:08:52;40.97;;;19.90;;
6300;SDS011;3183;51.010;6.898;2023-01-25T10:11:22;37.37;;;18.80;;
6300;SDS011;3183;51.010;6.898;2023-01-25T10:13:50;44.40;;;20.23;;
6300;SDS011;3183;51.010;6.898;2023-01-25T10:16:21;40.30;;;21.30;;
6300;SDS011;3183;51.010;6.898;2023-01-25T10:18:53;40.50;;;19.80;;
6300;SDS011;3183;51.010;6.898;2023-01-25T10:21:22;53.90;;;21.03;;
6300;SDS011;3183;51.010;6.898;2023-01-25T10:26:41;41.83;;;19.87;;
6300;SDS011;3183;51.010;6.898;2023-01-25T10:29:11;54.70;;;22.00;;
6300;SDS011;3183;51.010;6.898;2023-01-25T10:31:41;53.57;;;23.57;;
6300;SDS011;3183;51.010;6.898;2023-01-25T10:34:15;39.50;;;19.80;;
6300;SDS011;3183;51.010;6.898;2023-01-25T10:36:44;53.03;;;22.70;;
6300;SDS011;3183;51.010;6.898;2023-01-25T10:39:13;46.77;;;21.60;;
6300;SDS011;3183;51.010;6.898;2023-01-25T10:41:42;42.07;;;20.10;;
6300;SDS011;3183;51.010;6.898;2023-01-25T10:44:11;50.37;;;21.90;;
6300;SDS011;3183;51.010;6.898;2023-01-25T10:46:50;41.80;;;21.17;;
6300;SDS011;3183;51.010;6.898;2023-01-25T10:49:20;48.57;;;21.77;;
6300;SDS011;3183;51.010;6.898;2023-01-25T10:51:49;48.03;;;23.50;;
6300;SDS011;3183;51.010;6.898;2023-01-25T10:54:16;61.47;;;23.10;;
6300;SDS011;3183;51.010;6.898;2023-01-25T10:56:45;47.57;;;21.23;;
6300;SDS011;3183;51.010;6.898;2023-01-25T10:59:14;48.70;;;21.60;;
6300;SDS011;3183;51.010;6.898;2023-01-25T11:01:42;48.27;;;22.20;;
6300;SDS011;3183;51.010;6.898;2023-01-25T11:04:23;46.20;;;20.83;;
6300;SDS011;3183;51.010;6.898;2023-01-25T11:06:51;41.57;;;19.70;;
6300;SDS011;3183;51.010;6.898;2023-01-25T11:09:31;54.23;;;23.60;;
6300;SDS011;3183;51.010;6.898;2023-01-25T11:12:00;48.03;;;22.97;;
6300;SDS011;3183;51.010;6.898;2023-01-25T11:14:28;45.20;;;20.73;;
6300;SDS011;3183;51.010;6.898;2023-01-25T11:16:55;47.10;;;21.80;;
6300;SDS011;3183;51.010;6.898;2023-01-25T11:19:24;53.53;;;23.10;;
6300;SDS011;3183;51.010;6.898;2023-01-25T11:21:52;45.50;;;22.40;;
6300;SDS011;3183;51.010;6.898;2023-01-25T11:24:25;45.97;;;21.17;;
6300;SDS011;3183;51.010;6.898;2023-01-25T11:29:36;45.27;;;21.00;;
6300;SDS011;3183;51.010;6.898;2023-01-25T11:32:04;46.90;;;21.57;;
6300;SDS011;3183;51.010;6.898;2023-01-25T11:34:40;46.80;;;20.43;;
6300;SDS011;3183;51.010;6.898;2023-01-25T11:37:12;43.37;;;21.10;;
6300;SDS011;3183;51.010;6.898;2023-01-25T11:39:46;51.20;;;21.87;;
6300;SDS011;3183;51.010;6.898;2023-01-25T11:42:22;46.07;;;21.27;;
6300;SDS011;3183;51.010;6.898;2023-01-25T11:45:06;43.67;;;21.17;;
6300;SDS011;3183;51.010;6.898;2023-01-25T11:47:42;46.83;;;19.87;;
6300;SDS011;3183;51.010;6.898;2023-01-25T11:50:12;48.00;;;21.37;;
6300;SDS011;3183;51.010;6.898;2023-01-25T11:55:30;50.20;;;21.40;;
6300;SDS011;3183;51.010;6.898;2023-01-25T11:58:02;51.80;;;22.17;;
6300;SDS011;3183;51.010;6.898;2023-01-25T12:00:38;54.63;;;23.53;;
6300;SDS011;3183;51.010;6.898;2023-01-25T12:03:13;62.43;;;24.07;;
6300;SDS011;3183;51.010;6.898;2023-01-25T12:05:47;51.83;;;22.40;;
6300;SDS011;3183;51.010;6.898;2023-01-25T12:08:19;52.70;;;25.47;;
6300;SDS011;3183;51.010;6.898;2023-01-25T12:10:51;51.23;;;22.47;;
6300;SDS011;3183;51.010;6.898;2023-01-25T12:13:28;58.63;;;24.17;;
6300;SDS011;3183;51.010;6.898;2023-01-25T12:16:09;50.50;;;22.83;;
6300;SDS011;3183;51.010;6.898;2023-01-25T12:18:44;53.10;;;23.07;;
6300;SDS011;3183;51.010;6.898;2023-01-25T12:21:16;46.93;;;22.33;;
6300;SDS011;3183;51.010;6.898;2023-01-25T12:26:34;51.73;;;21.83;;
6300;SDS011;3183;51.010;6.898;2023-01-25T12:29:04;63.37;;;27.23;;
6300;SDS011;3183;51.010;6.898;2023-01-25T12:31:39;70.87;;;29.13;;
6300;SDS011;3183;51.010;6.898;2023-01-25T12:34:09;67.13;;;25.87;;
6300;SDS011;3183;51.010;6.898;2023-01-25T12:36:39;63.07;;;26.63;;
6300;SDS011;3183;51.010;6.898;2023-01-25T12:39:09;64.27;;;27.70;;
6300;SDS011;3183;51.010;6.898;2023-01-25T12:41:38;56.53;;;22.80;;
6300;SDS011;3183;51.010;6.898;2023-01-25T12:44:07;55.07;;;23.73;;
6300;SDS011;3183;51.010;6.898;2023-01-25T12:46:39;50.47;;;23.27;;
6300;SDS011;3183;51.010;6.898;2023-01-25T12:49:12;55.70;;;24.67;;
6300;SDS011;3183;51.010;6.898;2023-01-25T12:51:41;60.93;;;25.97;;
6300;SDS011;3183;51.010;6.898;2023-01-25T12:54:13;53.80;;;23.03;;
6300;SDS011;3183;51.010;6.898;2023-01-25T12:56:45;44.47;;;20.87;;
6300;SDS011;3183;51.010;6.898;2023-01-25T12:59:15;41.97;;;20.27;;
6300;SDS011;3183;51.010;6.898;2023-01-25T13:01:48;38.43;;;17.77;;
6300;SDS011;3183;51.010;6.898;2023-01-25T13:04:20;45.57;;;20.67;;
6300;SDS011;3183;51.010;6.898;2023-01-25T13:06:51;57.10;;;19.90;;
6300;SDS011;3183;51.010;6.898;2023-01-25T13:09:21;44.50;;;18.37;;
6300;SDS011;3183;51.010;6.898;2023-01-25T13:11:52;48.20;;;20.00;;
6300;SDS011;3183;51.010;6.898;2023-01-25T13:14:27;56.13;;;20.00;;
6300;SDS011;3183;51.010;6.898;2023-01-25T13:17:10;53.07;;;20.43;;
6300;SDS011;3183;51.010;6.898;2023-01-25T13:19:38;41.10;;;19.10;;
6300;SDS011;3183;51.010;6.898;2023-01-25T13:22:07;55.50;;;22.17;;
6300;SDS011;3183;51.010;6.898;2023-01-25T13:27:24;56.73;;;20.07;;
6300;SDS011;3183;51.010;6.898;2023-01-25T13:30:00;44.07;;;19.00;;
6300;SDS011;3183;51.010;6.898;2023-01-25T13:35:34;52.30;;;21.80;;
6300;SDS011;3183;51.010;6.898;2023-01-25T13:38:03;53.63;;;22.43;;
6300;SDS011;3183;51.010;6.898;2023-01-25T13:40:32;57.90;;;23.97;;
6300;SDS011;3183;51.010;6.898;2023-01-25T13:43:01;53.83;;;23.83;;
6300;SDS011;3183;51.010;6.898;2023-01-25T13:45:32;53.97;;;23.43;;
6300;SDS011;3183;51.010;6.898;2023-01-25T13:48:02;48.30;;;21.80;;
6300;SDS011;3183;51.010;6.898;2023-01-25T13:50:30;53.20;;;22.77;;
6300;SDS011;3183;51.010;6.898;2023-01-25T13:53:02;58.87;;;24.30;;
6300;SDS011;3183;51.010;6.898;2023-01-25T13:55:36;52.20;;;22.97;;
6300;SDS011;3183;51.010;6.898;2023-01-25T13:58:07;64.87;;;23.83;;
6300;SDS011;3183;51.010;6.898;2023-01-25T14:00:34;48.40;;;21.23;;
6300;SDS011;3183;51.010;6.898;2023-01-25T14:03:03;60.67;;;23.43;;
6300;SDS011;3183;51.010;6.898;2023-01-25T14:05:31;48.17;;;20.07;;
6300;SDS011;3183;51.010;6.898;2023-01-25T14:07:58;48.67;;;21.60;;
6300;SDS011;3183;51.010;6.898;2023-01-25T14:10:27;47.23;;;22.47;;
6300;SDS011;3183;51.010;6.898;2023-01-25T14:12:57;51.33;;;21.70;;
6300;SDS011;3183;51.010;6.898;2023-01-25T14:15:25;48.50;;;22.80;;
6300;SDS011;3183;51.010;6.898;2023-01-25T14:18:12;42.27;;;19.30;;
6300;SDS011;3183;51.010;6.898;2023-01-25T14:20:40;36.87;;;18.13;;
6300;SDS011;3183;51.010;6.898;2023-01-25T14:23:20;43.40;;;20.30;;
6300;SDS011;3183;51.010;6.898;2023-01-25T14:26:03;43.60;;;19.20;;
6300;SDS011;3183;51.010;6.898;2023-01-25T14:28:42;52.00;;;19.90;;
6300;SDS011;3183;51.010;6.898;2023-01-25T14:31:12;44.93;;;20.93;;
6300;SDS011;3183;51.010;6.898;2023-01-25T14:33:42;47.67;;;19.40;;
6300;SDS011;3183;51.010;6.898;2023-01-25T14:36:12;45.80;;;20.63;;
6300;SDS011;3183;51.010;6.898;2023-01-25T14:38:40;42.90;;;19.23;;
6300;SDS011;3183;51.010;6.898;2023-01-25T14:41:12;57.70;;;21.33;;
6300;SDS011;3183;51.010;6.898;2023-01-25T14:43:40;48.10;;;20.27;;
6300;SDS011;3183;51.010;6.898;2023-01-25T14:46:19;47.30;;;20.97;;
6300;SDS011;3183;51.010;6.898;2023-01-25T14:48:46;48.40;;;20.27;;
6300;SDS011;3183;51.010;6.898;2023-01-25T14:51:14;49.90;;;21.80;;
6300;SDS011;3183;51.010;6.898;2023-01-25T14:53:43;57.90;;;24.27;;
6300;SDS011;3183;51.010;6.898;2023-01-25T14:56:17;55.00;;;24.37;;
6300;SDS011;3183;51.010;6.898;2023-01-25T14:58:47;56.97;;;23.10;;
6300;SDS011;3183;51.010;6.898;2023-01-25T15:01:20;47.83;;;21.77;;
6300;SDS011;3183;51.010;6.898;2023-01-25T15:03:49;51.10;;;20.63;;
6300;SDS011;3183;51.010;6.898;2023-01-25T15:06:16;48.30;;;22.47;;
6300;SDS011;3183;51.010;6.898;2023-01-25T15:08:43;51.97;;;24.47;;
6300;SDS011;3183;51.010;6.898;2023-01-25T15:11:24;49.33;;;23.60;;
6300;SDS011;3183;51.010;6.898;2023-01-25T15:14:13;64.00;;;21.90;;
6300;SDS011;3183;51.010;6.898;2023-01-25T15:16:41;50.47;;;21.70;;